Time;durP1;ratioP1;P1;durP2;ratioP2;P2;SDS_P1;SDS_P2;PMS_P1;PMS_P2;Temp;Humidity;BMP_temperature;BMP_pressure;BME280_temperature;BME280_humidity;BME280_pressure;Samples;Min_cycle;Max_cycle;Signal;HPM_P1;HPM_P2
2021/04/15 00:01:48;;;;;;;21.60;2.70;;;2.30;99.50;;;;;;10475767;28;20047;-67
2021/04/15 00:06:51;;;;;;;11.02;2.45;;;2.20;96.90;;;;;;10475269;28;21453;-67
2021/04/15 00:11:53;;;;;;;10.57;2.28;;;1.90;99.40;;;;;;10473952;28;20048;-67
2021/04/15 00:16:54;;;;;;;10.60;2.43;;;2.30;99.90;;;;;;10475647;28;20059;-67
2021/04/15 00:21:56;;;;;;;9.00;2.20;;;2.30;98.20;;;;;;10475129;28;20483;-67
2021/04/15 00:26:58;;;;;;;9.50;2.45;;;1.70;99.30;;;;;;10474837;28;20041;-67
2021/04/15 00:31:59;;;;;;;9.25;2.38;;;1.60;99.40;;;;;;10474733;28;20044;-67
2021/04/15 00:37:01;;;;;;;9.35;2.30;;;;;;;;;;10472156;28;20143;-67
2021/04/15 00:42:04;;;;;;;15.80;2.40;;;1.50;96.60;;;;;;10472031;28;20040;-67
2021/04/15 00:47:09;;;;;;;17.27;2.70;;;1.30;99.40;;;;;;10471789;28;20054;-67
2021/04/15 00:52:15;;;;;;;7.85;2.58;;;1.20;96.70;;;;;;10473737;28;20452;-67
2021/04/15 00:57:21;;;;;;;7.15;2.50;;;1.00;96.60;;;;;;10469494;28;20074;-67
2021/04/15 01:02:24;;;;;;;9.67;2.83;;;1.00;99.30;;;;;;10469383;28;20054;-67
2021/04/15 01:07:26;;;;;;;4.43;2.03;;;0.90;96.60;;;;;;10463058;28;20048;-67
2021/04/15 01:12:46;;;;;;;12.63;2.83;;;1.10;97.10;;;;;;10467103;28;20071;-67
2021/04/15 01:17:52;;;;;;;15.97;3.30;;;1.80;97.90;;;;;;10470373;28;20040;-67
2021/04/15 01:23:05;;;;;;;12.60;3.43;;;2.40;98.00;;;;;;10471014;28;20040;-67
2021/04/15 01:28:21;;;;;;;5.47;2.33;;;2.80;97.90;;;;;;10472873;28;20126;-67
2021/04/15 01:33:27;;;;;;;6.55;1.95;;;2.90;99.90;;;;;;10470192;28;20048;-67
2021/04/15 01:38:33;;;;;;;2.33;1.40;;;2.70;99.90;;;;;;10469988;28;20036;-67
2021/04/15 01:43:39;;;;;;;2.50;1.40;;;2.90;99.90;;;;;;10468720;28;20086;-67
2021/04/15 01:48:45;;;;;;;8.45;2.20;;;2.50;97.20;;;;;;10470253;28;20061;-67
2021/04/15 01:53:49;;;;;;;1.52;1.35;;;2.40;97.40;;;;;;10473292;28;20059;-67
2021/04/15 01:59:01;;;;;;;3.47;1.48;;;2.50;99.90;;;;;;10473759;28;20059;-67
2021/04/15 02:04:07;;;;;;;10.77;1.80;;;2.30;97.80;;;;;;10471607;28;20141;-67
2021/04/15 02:09:11;;;;;;;8.80;1.90;;;2.50;99.90;;;;;;10471659;28;20058;-67
2021/04/15 02:14:17;;;;;;;20.05;5.30;;;2.10;97.70;;;;;;10470706;28;20078;-67
2021/04/15 02:19:23;;;;;;;2.97;1.60;;;2.20;99.90;;;;;;10472449;28;20456;-67
2021/04/15 02:24:34;;;;;;;7.10;1.50;;;1.80;99.90;;;;;;10471695;28;20037;-67
2021/04/15 02:29:37;;;;;;;2.65;1.35;;;2.00;99.90;;;;;;10470589;28;20040;-67
2021/04/15 02:34:45;;;;;;;8.98;2.03;;;2.40;99.90;;;;;;10470295;28;20083;-67
2021/04/15 02:39:52;;;;;;;18.40;3.22;;;2.90;99.30;;;;;;10471502;28;20147;-67
2021/04/15 02:44:59;;;;;;;16.10;2.13;;;3.20;99.50;;;;;;10470280;28;20091;-67
2021/04/15 02:50:06;;;;;;;9.60;2.05;;;3.60;99.90;;;;;;10471021;28;20062;-67
2021/04/15 02:55:12;;;;;;;4.63;2.45;;;3.80;99.90;;;;;;10470203;28;20151;-67
2021/04/15 03:00:18;;;;;;;5.88;1.30;;;4.00;99.90;;;;;;10472724;28;20047;-68
2021/04/15 03:05:24;;;;;;;3.38;1.23;;;3.80;99.00;;;;;;10478249;28;20341;-67
2021/04/15 03:10:28;;;;;;;0.90;0.90;;;3.60;99.90;;;;;;10479270;28;20376;-67
2021/04/15 03:15:34;;;;;;;2.45;1.10;;;3.80;99.90;;;;;;10478519;28;20052;-67
2021/04/15 03:20:42;;;;;;;4.95;1.23;;;3.50;99.90;;;;;;10479176;28;20041;-67
2021/04/15 03:25:44;;;;;;;6.35;1.58;;;3.40;99.90;;;;;;10478546;28;20068;-67
2021/04/15 03:30:49;;;;;;;10.35;1.45;;;2.80;99.90;;;;;;10477661;28;20052;-68
2021/04/15 03:35:58;;;;;;;6.43;1.13;;;2.90;99.90;;;;;;10477328;28;20152;-67
2021/04/15 03:41:04;;;;;;;19.88;1.52;;;2.60;99.90;;;;;;10479297;28;21436;-67
2021/04/15 03:46:10;;;;;;;3.53;1.45;;;2.50;99.90;;;;;;10476860;28;20052;-68
2021/04/15 03:51:16;;;;;;;8.13;1.42;;;2.50;99.90;;;;;;10475976;28;20274;-67
2021/04/15 03:56:24;;;;;;;5.07;1.83;;;2.60;99.90;;;;;;10477255;28;20091;-67
2021/04/15 04:01:30;;;;;;;12.57;2.88;;;2.80;98.00;;;;;;10477341;28;20071;-67
2021/04/15 04:06:36;;;;;;;8.98;2.50;;;2.80;98.00;;;;;;10475964;28;20048;-67
2021/04/15 04:11:39;;;;;;;9.57;2.10;;;3.10;99.90;;;;;;10475034;28;20060;-68
2021/04/15 04:16:44;;;;;;;7.00;2.10;;;3.20;99.90;;;;;;10477151;28;20055;-71
2021/04/15 04:21:50;;;;;;;5.40;2.00;;;3.80;99.10;;;;;;10473579;28;20322;-71
2021/04/15 04:26:56;;;;;;;4.78;1.60;;;3.20;99.70;;;;;;10473253;28;20037;-71
2021/04/15 04:32:01;;;;;;;13.63;2.03;;;3.20;99.90;;;;;;10472261;28;21907;-71
2021/04/15 04:37:05;;;;;;;2.67;1.70;;;3.20;99.90;;;;;;10475004;28;20765;-71
2021/04/15 04:42:15;;;;;;;4.72;1.33;;;3.00;99.90;;;;;;10473032;28;20056;-71
2021/04/15 04:47:27;;;;;;;3.30;1.77;;;2.60;99.90;;;;;;10472548;28;20043;-71
2021/04/15 04:52:31;;;;;;;7.07;1.63;;;2.60;99.90;;;;;;10470092;28;20044;-71
2021/04/15 04:57:36;;;;;;;7.85;1.48;;;2.20;99.90;;;;;;10472681;28;20040;-71
2021/04/15 05:02:38;;;;;;;6.68;1.35;;;2.20;99.90;;;;;;10472600;28;20048;-77
2021/04/15 05:07:43;;;;;;;2.88;1.13;;;2.30;99.90;;;;;;10473339;28;20051;-72
2021/04/15 05:12:45;;;;;;;4.75;1.88;;;2.00;99.90;;;;;;10461361;28;20052;-72
2021/04/15 05:17:47;;;;;;;6.90;1.50;;;;;;;;;;10472924;28;20397;-71
2021/04/15 05:22:57;;;;;;;5.63;2.10;;;2.70;99.90;;;;;;10472798;28;20125;-72
2021/04/15 05:27:59;;;;;;;5.10;1.48;;;3.20;99.90;;;;;;10467211;28;20124;-71
2021/04/15 05:33:03;;;;;;;6.35;1.63;;;4.20;99.90;;;;;;10471549;28;20157;-70
2021/04/15 05:38:09;;;;;;;8.40;2.08;;;5.00;99.90;;;;;;10470140;28;20052;-69
2021/04/15 05:43:32;;;;;;;18.08;2.20;;;3.90;99.90;;;;;;10470588;28;20036;-73
2021/04/15 05:48:34;;;;;;;9.30;2.10;;;3.70;99.90;;;;;;10462479;28;20152;-74
2021/04/15 05:53:40;;;;;;;20.17;3.77;;;3.80;99.90;;;;;;10461377;28;20139;-71
2021/04/15 05:58:54;;;;;;;10.20;3.03;;;4.10;99.90;;;;;;10460505;28;20041;-71
2021/04/15 06:04:01;;;;;;;7.07;1.73;;;4.20;99.90;;;;;;10453449;28;20451;-71
2021/04/15 06:09:05;;;;;;;9.77;2.22;;;4.80;99.90;;;;;;10456734;28;20143;-71
2021/04/15 06:14:15;;;;;;;6.95;2.20;;;6.00;99.40;;;;;;10456519;28;20378;-71
2021/04/15 06:19:19;;;;;;;10.35;2.47;;;5.50;99.40;;;;;;10454163;28;20718;-71
2021/04/15 06:24:27;;;;;;;8.30;1.88;;;7.10;98.10;;;;;;10456219;28;20032;-71
2021/04/15 06:29:35;;;;;;;5.80;1.90;;;11.30;90.40;;;;;;10461949;28;20480;-71
2021/04/15 06:34:36;;;;;;;3.20;1.50;;;13.90;80.10;;;;;;10460465;28;20064;-72
2021/04/15 06:39:42;;;;;;;4.10;1.80;;;11.80;86.20;;;;;;10461886;28;20057;-72
2021/04/15 06:45:18;;;;;;;9.35;1.80;;;10.00;91.10;;;;;;10462659;28;20540;-72
2021/04/15 06:50:26;;;;;;;9.80;1.95;;;9.20;93.00;;;;;;10461248;28;20053;-71
2021/04/15 06:55:38;;;;;;;9.70;1.85;;;8.30;94.50;;;;;;10462757;28;20098;-71
2021/04/15 07:01:23;;;;;;;11.20;1.90;;;7.80;95.80;;;;;;10462206;28;20088;-71
2021/04/15 07:06:47;;;;;;;14.02;3.33;;;7.80;96.30;;;;;;10458070;28;21105;-72
2021/04/15 07:12:12;;;;;;;10.00;1.90;;;8.00;96.20;;;;;;10466577;28;20103;-72
2021/04/15 07:17:41;;;;;;;13.23;2.85;;;7.30;97.00;;;;;;10466014;28;20387;-73
2021/04/15 07:23:06;;;;;;;19.70;6.22;;;7.30;95.00;;;;;;10467652;28;20123;-69
2021/04/15 07:28:26;;;;;;;7.43;1.77;;;7.90;94.70;;;;;;10467875;28;20620;-70
2021/04/15 07:34:06;;;;;;;12.18;3.97;;;10.60;92.40;;;;;;10469923;28;20400;-69
2021/04/15 07:39:30;;;;;;;10.68;2.30;;;14.70;76.70;;;;;;10467747;28;20056;-75
2021/04/15 07:44:38;;;;;;;8.05;2.55;;;15.00;73.50;;;;;;10467438;28;20056;-75
2021/04/15 07:50:27;;;;;;;7.70;2.17;;;18.80;58.20;;;;;;10473981;28;20075;-74
2021/04/15 07:55:45;;;;;;;14.60;2.35;;;20.60;51.70;;;;;;10427107;28;20467;-72
2021/04/15 08:01:18;;;;;;;10.20;2.10;;;16.90;56.20;;;;;;10477272;28;20056;-75
2021/04/15 08:06:46;;;;;;;5.60;1.83;;;16.30;57.00;;;;;;10477245;28;20102;-69
2021/04/15 08:11:54;;;;;;;13.40;1.60;;;14.50;56.00;;;;;;10476984;28;20147;-73
2021/04/15 08:17:11;;;;;;;7.13;1.55;;;12.80;57.30;;;;;;10472835;28;20044;-71
2021/04/15 08:22:30;;;;;;;12.90;1.63;;;12.10;58.50;;;;;;10476182;28;20139;-71
2021/04/15 08:28:14;;;;;;;5.40;1.45;;;13.50;55.90;;;;;;10475554;28;20102;-74
2021/04/15 08:33:36;;;;;;;6.65;2.25;;;14.40;53.30;;;;;;10469348;28;20056;-79
2021/04/15 08:38:51;;;;;;;7.78;2.63;;;12.50;59.70;;;;;;10474647;28;20495;-77
2021/04/15 08:44:18;;;;;;;3.42;1.30;;;11.60;62.70;;;;;;10476164;28;20147;-74
2021/04/15 08:49:31;;;;;;;6.45;1.02;;;14.10;58.20;;;;;;10474263;28;20147;-75
2021/04/15 08:54:35;;;;;;;;;;;14.40;55.40;;;;;;10472893;28;20722;-74
2021/04/15 08:59:48;;;;;;;5.00;0.85;;;14.70;51.00;;;;;;10468678;28;20299;-72
2021/04/15 09:05:01;;;;;;;4.20;1.23;;;13.80;55.80;;;;;;10465272;28;20091;-72
2021/04/15 09:10:14;;;;;;;2.50;1.27;;;14.20;53.70;;;;;;10463746;28;20055;-73
2021/04/15 09:15:23;;;;;;;4.15;1.30;;;14.20;51.00;;;;;;10471478;28;22251;-74
2021/04/15 09:20:32;;;;;;;3.22;1.15;;;16.10;46.10;;;;;;10472006;28;20044;-73
2021/04/15 09:25:45;;;;;;;2.65;0.90;;;17.60;40.90;;;;;;10469450;28;20136;-72
2021/04/15 09:31:05;;;;;;;2.42;0.90;;;18.40;41.90;;;;;;10472563;28;20081;-74
2021/04/15 09:36:17;;;;;;;4.50;0.90;;;18.30;40.70;;;;;;10469634;28;20623;-73
2021/04/15 09:41:54;;;;;;;4.13;1.30;;;18.30;39.20;;;;;;10470665;28;20147;-74
2021/04/15 09:47:04;;;;;;;3.67;1.20;;;18.20;36.40;;;;;;10459789;28;20139;-75
2021/04/15 09:52:31;;;;;;;3.85;1.00;;;19.50;35.50;;;;;;10468605;28;20492;-74
2021/04/15 09:57:38;;;;;;;2.22;1.00;;;21.40;33.00;;;;;;10456078;28;20685;-73
2021/04/15 10:02:51;;;;;;;4.68;1.20;;;22.20;31.50;;;;;;10466247;28;20086;-74
2021/04/15 10:07:58;;;;;;;2.67;1.10;;;19.30;33.60;;;;;;10469639;28;20048;-72
2021/04/15 10:13:07;;;;;;;5.50;1.70;;;18.60;38.40;;;;;;10470050;28;20040;-72
2021/04/15 10:18:31;;;;;;;3.70;1.45;;;14.00;48.20;;;;;;10463137;28;20051;-71
2021/04/15 10:24:08;;;;;;;5.43;2.03;;;13.90;45.90;;;;;;10460483;28;20370;-70
2021/04/15 10:29:21;;;;;;;6.20;1.00;;;13.50;47.00;;;;;;10458769;28;20477;-69
2021/04/15 10:34:52;;;;;;;7.35;1.58;;;12.80;43.90;;;;;;10458490;28;20074;-70
2021/04/15 10:40:24;;;;;;;6.13;1.67;;;12.70;44.80;;;;;;10458705;28;20139;-70
2021/04/15 10:46:06;;;;;;;2.95;1.58;;;12.40;44.10;;;;;;10460322;28;20056;-71
2021/04/15 10:51:17;;;;;;;4.65;1.17;;;12.40;46.40;;;;;;10461420;28;20076;-71
2021/04/15 10:56:43;;;;;;;4.50;1.20;;;12.70;45.00;;;;;;10459572;28;20075;-74
2021/04/15 11:01:46;;;;;;;1.80;1.63;;;14.20;42.60;;;;;;10458835;28;20401;-74
2021/04/15 11:06:50;;;;;;;1.85;1.20;;;14.20;38.50;;;;;;10461249;28;20047;-72
2021/04/15 11:11:55;;;;;;;6.30;1.10;;;14.60;36.50;;;;;;10463218;28;20048;-72
2021/04/15 11:16:58;;;;;;;2.00;0.98;;;15.20;35.50;;;;;;10463357;28;20141;-69
2021/04/15 11:22:14;;;;;;;1.73;0.90;;;14.90;34.60;;;;;;10466316;28;20413;-72
2021/04/15 11:27:35;;;;;;;2.25;1.58;;;14.90;35.10;;;;;;10472472;28;20064;-73
2021/04/15 11:32:41;;;;;;;7.18;1.23;;;15.90;35.80;;;;;;10473191;28;20053;-72
2021/04/15 11:37:44;;;;;;;8.98;2.28;;;16.10;34.10;;;;;;10475672;28;21832;-73
2021/04/15 11:42:46;;;;;;;3.63;1.33;;;17.40;33.30;;;;;;10475842;28;20070;-70
2021/04/15 11:47:48;;;;;;;3.40;1.10;;;17.80;32.20;;;;;;10477122;28;20109;-72
2021/04/15 11:52:53;;;;;;;1.85;1.42;;;18.40;31.80;;;;;;10476410;28;20150;-66
2021/04/15 11:57:57;;;;;;;2.45;0.90;;;18.70;29.60;;;;;;10474758;28;20374;-66
2021/04/15 12:03:12;;;;;;;4.47;1.48;;;19.70;28.60;;;;;;10474102;28;20160;-64
2021/04/15 12:08:19;;;;;;;2.15;1.30;;;18.60;28.80;;;;;;10473503;28;20079;-67
2021/04/15 12:13:24;;;;;;;2.63;1.35;;;17.50;30.40;;;;;;10470489;28;20052;-65
2021/04/15 12:18:33;;;;;;;1.67;1.30;;;17.10;32.80;;;;;;10472589;28;20412;-66
2021/04/15 12:23:43;;;;;;;3.10;1.10;;;17.00;32.30;;;;;;10473272;28;20069;-65
2021/04/15 12:28:53;;;;;;;1.67;1.27;;;16.30;32.50;;;;;;10474172;28;20123;-65
2021/04/15 12:34:13;;;;;;;1.83;1.30;;;15.80;33.90;;;;;;10471559;28;20107;-65
2021/04/15 12:39:21;;;;;;;3.13;1.27;;;16.00;33.00;;;;;;10472861;28;20634;-66
2021/04/15 12:44:26;;;;;;;1.58;1.10;;;15.40;34.10;;;;;;10472538;28;20439;-65
2021/04/15 12:49:31;;;;;;;1.67;1.00;;;14.80;35.60;;;;;;10472899;28;20044;-65
2021/04/15 12:54:37;;;;;;;3.50;2.08;;;14.40;36.80;;;;;;10472057;28;20040;-65
2021/04/15 12:59:42;;;;;;;2.65;1.23;;;14.40;36.80;;;;;;10472507;28;20148;-65
2021/04/15 13:04:47;;;;;;;5.53;1.50;;;15.90;38.30;;;;;;10471602;28;20049;-65
2021/04/15 13:09:51;;;;;;;1.40;1.00;;;16.30;36.80;;;;;;10472598;28;20151;-65
2021/04/15 13:14:56;;;;;;;2.78;1.35;;;16.40;34.90;;;;;;10472329;28;20506;-65
2021/04/15 13:19:58;;;;;;;3.10;1.20;;;15.90;34.90;;;;;;10471393;28;20095;-65
2021/04/15 13:25:18;;;;;;;1.23;1.13;;;15.10;36.10;;;;;;10470600;28;20450;-65
2021/04/15 13:30:33;;;;;;;3.33;1.73;;;14.90;36.90;;;;;;10470734;28;20048;-65
2021/04/15 13:35:43;;;;;;;2.85;1.10;;;15.20;35.60;;;;;;10469139;28;20048;-65
2021/04/15 13:40:51;;;;;;;2.05;1.40;;;15.70;37.30;;;;;;10470075;28;20064;-65
2021/04/15 13:45:53;;;;;;;3.33;1.90;;;15.60;35.60;;;;;;10469810;28;20049;-65
2021/04/15 13:51:12;;;;;;;2.13;0.95;;;16.30;33.90;;;;;;10470749;28;20086;-65
2021/04/15 13:56:38;;;;;;;1.75;1.00;;;16.10;33.40;;;;;;10469389;28;20086;-65
2021/04/15 14:01:42;;;;;;;4.53;1.35;;;16.10;32.10;;;;;;10468279;28;20611;-67
2021/04/15 14:06:44;;;;;;;1.48;1.30;;;16.20;32.50;;;;;;10470121;28;20118;-65
2021/04/15 14:11:54;;;;;;;3.70;1.27;;;15.50;33.50;;;;;;10468887;28;20075;-65
2021/04/15 14:16:59;;;;;;;2.95;1.45;;;15.10;34.40;;;;;;10468734;28;21394;-65
2021/04/15 14:22:01;;;;;;;2.65;1.40;;;14.70;34.30;;;;;;10468510;28;20036;-65
2021/04/15 14:27:12;;;;;;;3.45;1.50;;;14.60;37.00;;;;;;10468936;28;20050;-66
2021/04/15 14:32:32;;;;;;;1.88;1.33;;;14.60;35.10;;;;;;10469085;28;20048;-69
2021/04/15 14:37:33;;;;;;;2.78;1.58;;;14.70;34.20;;;;;;10468849;28;20044;-68
2021/04/15 14:42:40;;;;;;;6.67;2.00;;;14.50;34.90;;;;;;10468496;28;20560;-68
2021/04/15 14:47:44;;;;;;;6.38;2.40;;;13.90;45.20;;;;;;10470515;28;20044;-69
2021/04/15 14:52:46;;;;;;;8.73;2.03;;;13.00;49.50;;;;;;10470625;28;20179;-68
2021/04/15 14:57:57;;;;;;;4.27;1.70;;;12.70;54.10;;;;;;10476245;28;20040;-68
2021/04/15 15:03:05;;;;;;;6.25;2.30;;;12.80;50.70;;;;;;10487564;28;20048;-69
2021/04/15 15:08:07;;;;;;;8.05;3.17;;;12.90;50.30;;;;;;10477768;28;20037;-67
2021/04/15 15:13:15;;;;;;;5.45;2.40;;;12.80;50.90;;;;;;10476547;28;20056;-69
2021/04/15 15:18:22;;;;;;;12.80;2.20;;;12.60;55.80;;;;;;10478979;28;20085;-69
2021/04/15 15:23:35;;;;;;;8.52;1.95;;;12.50;53.20;;;;;;10475500;28;20411;-70
2021/04/15 15:28:37;;;;;;;8.05;1.88;;;11.60;62.60;;;;;;10476556;28;20143;-70
2021/04/15 15:33:44;;;;;;;5.05;2.05;;;11.50;59.70;;;;;;10476564;28;20426;-69
2021/04/15 15:38:49;;;;;;;12.10;2.10;;;11.30;64.70;;;;;;10474962;28;20059;-69
2021/04/15 15:44:23;;;;;;;7.35;1.75;;;10.90;64.60;;;;;;10476415;28;20056;-69
2021/04/15 15:49:47;;;;;;;6.90;2.35;;;11.00;63.00;;;;;;10480203;28;20139;-69
2021/04/15 15:54:49;;;;;;;6.07;2.03;;;10.80;65.00;;;;;;10477375;28;20384;-69
2021/04/15 16:00:00;;;;;;;6.38;2.17;;;11.10;60.10;;;;;;10475615;28;20064;-71
2021/04/15 16:05:06;;;;;;;8.00;2.25;;;11.20;64.50;;;;;;10473299;28;20481;-71
2021/04/15 16:10:15;;;;;;;8.65;2.45;;;12.10;63.90;;;;;;10472740;28;20086;-70
2021/04/15 16:15:44;;;;;;;12.15;3.72;;;11.60;59.90;;;;;;10476869;28;20056;-68
2021/04/15 16:20:54;;;;;;;6.80;2.22;;;10.20;70.20;;;;;;10444485;28;20059;-70
2021/04/15 16:25:56;;;;;;;9.80;2.25;;;10.40;73.40;;;;;;10471047;28;20063;-71
2021/04/15 16:30:58;;;;;;;14.55;3.15;;;10.20;72.20;;;;;;10471040;28;20123;-71
2021/04/15 16:36:00;;;;;;;7.27;2.17;;;10.00;71.90;;;;;;10467384;28;20049;-70
2021/04/15 16:41:02;;;;;;;6.32;2.30;;;9.90;70.40;;;;;;10470711;28;20098;-69
2021/04/15 16:46:04;;;;;;;9.00;2.03;;;10.50;72.00;;;;;;10472243;28;20532;-71
2021/04/15 16:51:08;;;;;;;14.43;2.63;;;10.40;72.40;;;;;;10471769;28;20542;-72
2021/04/15 16:56:09;;;;;;;21.27;2.55;;;10.00;73.90;;;;;;10472184;28;20041;-71
2021/04/15 17:01:11;;;;;;;11.07;2.47;;;10.30;75.20;;;;;;10471842;28;20391;-68
2021/04/15 17:06:15;;;;;;;10.93;2.80;;;9.60;74.70;;;;;;10474074;28;20194;-69
2021/04/15 17:11:16;;;;;;;15.68;2.42;;;9.30;77.70;;;;;;10475233;28;20516;-67
2021/04/15 17:16:18;;;;;;;10.43;2.53;;;9.40;81.20;;;;;;10473281;28;20044;-70
2021/04/15 17:21:20;;;;;;;17.20;2.78;;;9.30;76.30;;;;;;10471991;28;20053;-69
2021/04/15 17:26:22;;;;;;;15.43;3.03;;;9.10;77.60;;;;;;10470595;28;20121;-70
2021/04/15 17:31:24;;;;;;;11.23;2.28;;;9.00;79.10;;;;;;10469406;28;20084;-66
2021/04/15 17:36:27;;;;;;;13.05;3.67;;;9.80;81.30;;;;;;10464473;28;20056;-68
2021/04/15 17:41:28;;;;;;;12.73;3.25;;;9.40;73.00;;;;;;10468849;28;20041;-67
2021/04/15 17:46:30;;;;;;;19.45;3.42;;;9.40;73.30;;;;;;10469167;28;20607;-68
2021/04/15 17:51:32;;;;;;;19.02;2.38;;;9.40;79.00;;;;;;10471479;28;20072;-69
2021/04/15 17:56:34;;;;;;;15.20;2.43;;;9.00;77.30;;;;;;10471407;28;20068;-68
2021/04/15 18:01:35;;;;;;;15.45;2.72;;;8.90;78.60;;;;;;10470369;28;20565;-67
2021/04/15 18:06:38;;;;;;;12.02;2.45;;;8.80;73.40;;;;;;10477709;28;20102;-67
2021/04/15 18:11:40;;;;;;;;;;;8.50;76.90;;;;;;10471616;28;20048;-67
2021/04/15 18:16:41;;;;;;;17.10;3.10;;;8.20;86.20;;;;;;10469262;28;19952;-67
2021/04/15 18:21:43;;;;;;;17.80;6.95;;;7.80;87.50;;;;;;10472102;28;20053;-70
2021/04/15 18:26:45;;;;;;;14.53;3.77;;;7.50;83.70;;;;;;10479630;28;20083;-73
2021/04/15 18:31:46;;;;;;;21.48;4.13;;;7.40;90.40;;;;;;10477008;28;20068;-72
2021/04/15 18:36:49;;;;;;;21.67;3.35;;;7.20;91.00;;;;;;10467517;28;20518;-70
2021/04/15 18:41:51;;;;;;;;;;;7.20;86.90;;;;;;10468646;28;20504;-69
2021/04/15 18:46:56;;;;;;;12.32;3.45;;;6.70;92.10;;;;;;10464673;28;20020;-70
2021/04/15 18:51:58;;;;;;;11.60;4.22;;;6.90;92.30;;;;;;10468988;28;20049;-70
2021/04/15 18:57:01;;;;;;;6.32;2.85;;;6.60;92.80;;;;;;10470154;28;20118;-70
2021/04/15 19:02:03;;;;;;;16.40;3.20;;;6.70;90.50;;;;;;10469428;28;20036;-68
2021/04/15 19:07:06;;;;;;;11.60;2.78;;;6.20;93.30;;;;;;10465423;28;20082;-68
2021/04/15 19:12:07;;;;;;;16.47;2.60;;;6.30;93.30;;;;;;10468173;28;20911;-67
2021/04/15 19:17:08;;;;;;;14.50;2.45;;;6.10;93.60;;;;;;10470859;28;20124;-71
2021/04/15 19:22:11;;;;;;;15.90;5.70;;;6.20;91.40;;;;;;10469517;28;20567;-67
2021/04/15 19:27:12;;;;;;;12.65;3.00;;;6.10;94.20;;;;;;10464832;28;20457;-70
2021/04/15 19:32:14;;;;;;;12.05;3.08;;;6.30;94.50;;;;;;10465779;28;20051;-70
2021/04/15 19:37:17;;;;;;;13.98;3.50;;;5.70;94.60;;;;;;10463310;28;20716;-69
2021/04/15 19:42:19;;;;;;;13.82;2.83;;;6.10;92.60;;;;;;10466368;28;20457;-69
2021/04/15 19:47:20;;;;;;;11.73;3.35;;;6.10;94.50;;;;;;10486534;28;20052;-69
2021/04/15 19:52:22;;;;;;;9.27;2.40;;;6.00;95.80;;;;;;10472842;28;20044;-69
2021/04/15 19:57:24;;;;;;;11.45;3.13;;;5.70;96.00;;;;;;10472230;28;20123;-69
2021/04/15 20:02:25;;;;;;;21.27;3.25;;;6.00;96.60;;;;;;10472917;28;20381;-69
2021/04/15 20:07:27;;;;;;;13.43;3.00;;;5.80;96.70;;;;;;10472641;28;20495;-69
2021/04/15 20:12:29;;;;;;;13.70;3.65;;;;;;;;;;10467372;28;20070;-69
2021/04/15 20:17:30;;;;;;;24.45;4.15;;;5.90;95.20;;;;;;10467250;28;20539;-70
2021/04/15 20:22:33;;;;;;;3.75;2.00;;;5.70;94.20;;;;;;10469887;28;20124;-71
2021/04/15 20:27:36;;;;;;;3.60;2.17;;;5.70;90.30;;;;;;10472903;28;20161;-69
2021/04/15 20:32:38;;;;;;;9.35;2.75;;;5.70;92.20;;;;;;10473527;28;20059;-69
2021/04/15 20:37:40;;;;;;;12.88;2.20;;;5.50;91.00;;;;;;10462513;28;20056;-68
2021/04/15 20:42:41;;;;;;;8.98;2.50;;;5.60;90.30;;;;;;10463109;28;20051;-70
2021/04/15 20:47:43;;;;;;;6.80;2.88;;;5.70;88.70;;;;;;10471163;28;20105;-70
2021/04/15 20:52:46;;;;;;;5.07;2.35;;;5.40;87.60;;;;;;10473268;28;20043;-69
2021/04/15 20:57:47;;;;;;;6.75;2.33;;;5.50;86.90;;;;;;10473862;28;20059;-69
2021/04/15 21:02:49;;;;;;;6.22;1.98;;;5.60;86.80;;;;;;10474813;28;20046;-68
2021/04/15 21:07:52;;;;;;;9.88;2.17;;;5.10;86.50;;;;;;10471522;28;20056;-69
2021/04/15 21:12:54;;;;;;;4.05;2.20;;;5.10;86.80;;;;;;10473795;28;20477;-68
2021/04/15 21:17:56;;;;;;;4.90;2.10;;;5.10;86.90;;;;;;10471110;28;20441;-69
2021/04/15 21:22:59;;;;;;;4.13;2.42;;;5.10;87.00;;;;;;10474548;28;20370;-70
2021/04/15 21:28:00;;;;;;;;;;;5.20;82.10;;;;;;10473864;28;20048;-69
2021/04/15 21:33:02;;;;;;;8.07;2.38;;;5.00;86.40;;;;;;10470064;28;19921;-70
2021/04/15 21:38:06;;;;;;;7.28;2.60;;;4.90;87.10;;;;;;10470793;28;20156;-69
2021/04/15 21:43:08;;;;;;;5.32;2.20;;;5.20;86.10;;;;;;10467475;28;20046;-68
2021/04/15 21:48:12;;;;;;;3.78;2.35;;;4.60;86.00;;;;;;10453858;28;20224;-71
2021/04/15 21:53:16;;;;;;;7.13;2.42;;;4.60;86.20;;;;;;10470439;28;20452;-70
2021/04/15 21:58:20;;;;;;;3.00;2.13;;;4.90;86.30;;;;;;10472408;28;20151;-68
2021/04/15 22:03:22;;;;;;;7.10;2.60;;;5.10;86.20;;;;;;10489140;28;20053;-68
2021/04/15 22:08:29;;;;;;;4.60;2.35;;;4.80;84.50;;;;;;10470718;28;20135;-70
2021/04/15 22:13:31;;;;;;;5.35;2.05;;;4.90;86.40;;;;;;10469353;28;20105;-72
2021/04/15 22:18:32;;;;;;;6.60;2.13;;;4.90;86.70;;;;;;10471005;28;20119;-70
2021/04/15 22:23:36;;;;;;;4.18;2.53;;;4.40;87.00;;;;;;10470454;28;20186;-69
2021/04/15 22:28:40;;;;;;;5.45;2.65;;;4.40;82.10;;;;;;10470407;28;20047;-69
2021/04/15 22:33:42;;;;;;;6.05;2.90;;;4.50;88.00;;;;;;10469458;28;20496;-70
2021/04/15 22:38:44;;;;;;;2.65;1.73;;;4.30;88.30;;;;;;10468310;28;20048;-69
2021/04/15 22:43:46;;;;;;;6.43;2.63;;;;;;;;;;10472450;28;20048;-69
2021/04/15 22:48:47;;;;;;;4.30;2.30;;;3.80;89.10;;;;;;10473412;28;20076;-70
2021/04/15 22:53:52;;;;;;;5.70;2.53;;;4.00;89.80;;;;;;10470235;28;20057;-70
2021/04/15 22:58:54;;;;;;;7.25;4.03;;;4.00;90.10;;;;;;10479073;28;20404;-72
2021/04/15 23:03:58;;;;;;;14.20;2.70;;;3.90;90.30;;;;;;10467690;28;20046;-69
2021/04/15 23:09:00;;;;;;;3.65;2.40;;;3.90;90.40;;;;;;10469846;28;20060;-70
2021/04/15 23:14:01;;;;;;;5.85;2.35;;;4.00;90.50;;;;;;10467307;28;20460;-71
2021/04/15 23:19:03;;;;;;;5.70;2.25;;;3.90;90.70;;;;;;10469926;28;20499;-70
2021/04/15 23:24:07;;;;;;;4.43;2.88;;;4.00;90.90;;;;;;10481506;28;20455;-71
2021/04/15 23:29:08;;;;;;;7.13;2.78;;;3.40;91.00;;;;;;10477579;28;20043;-70
2021/04/15 23:34:09;;;;;;;4.80;2.22;;;3.60;91.30;;;;;;10478383;28;20055;-69
2021/04/15 23:39:11;;;;;;;9.40;3.45;;;3.50;91.50;;;;;;10475241;28;20423;-69
2021/04/15 23:44:13;;;;;;;6.18;2.63;;;3.80;92.10;;;;;;10476810;28;20040;-69
2021/04/15 23:49:14;;;;;;;6.03;3.50;;;3.20;92.20;;;;;;10477029;28;20070;-70
2021/04/15 23:54:16;;;;;;;6.70;2.78;;;3.60;92.50;;;;;;10476909;28;20068;-71
2021/04/15 23:59:18;;;;;;;6.43;3.35;;;3.00;92.60;;;;;;10477348;28;20051;-70
